Dakin Peak, Santa Catalina Island Weather observations

Data are for 10 minute period ending at time listed.
 Day   Time   Solar   Ave.   Ave.  Ave.  Vector    Max.   Stn.    Total
  of    of     Rad.   Air    Rel.  Wind   Wind     Wind   Baro.  Precip.
Year   Day            Temp.  Hum.  Speed  Dir.     Gust   Pres.         
2014   (PST)   W/m2    F      %     mph   deg.      mph    mb.     in.  
------------------------------------------------------------------------
 233    4:20    3.0    59   95.7     5    176.1     6.0    999.0   0.00  
 233    4:30    3.0    59   95.7     4    192.1     6.0    999.0   0.00  
 233    4:40    3.0    59   95.6     3    212.8     4.8    999.0   0.00  
 233    4:50    3.0    59   95.6     4    221.8     4.8    999.0   0.00  
 233    5:00    3.0    59   95.6     4    222.2     6.0    999.0   0.00  
 233    5:10    3.0    59   95.4     5    230.4     7.2    999.0   0.00  
 233    5:20    5.0    58   95.7     6    240.0     7.2    999.0   0.00  
 233    5:30    7.0    58   95.9     6    237.3     6.6    999.0   0.00  
 233    5:40   16.0    59   96.0     5    224.8     6.0    999.0   0.00  
 233    5:50   20.0    59   96.0     3    219.3     4.8    999.0   0.00  
 233    6:00   28.0    59   95.8     3    226.3     4.2    999.0   0.00  
 233    6:10   38.0    59   95.6     4    275.7     4.8    999.0   0.00  
 233    6:20   46.0    60   95.5     2    307.4     3.6    999.0   0.00  
 233    6:30   54.0    60   94.8     1     30.9     3.0    999.0   0.00  
 233    6:40   59.0    61   94.1     3     48.8     6.0    999.0   0.00  
 233    6:50   65.0    61   93.2     2     85.9     7.2    999.0   0.00  
 233    7:00   77.0    62   92.7     2     80.1     3.6    999.0   0.00  
 233    7:10   97.0    62   91.8     3     41.5     4.8    999.0   0.00  
 233    7:20  112.0    62   91.1     4     89.9     5.4    999.0   0.00  
 233    7:30  152.0    63   90.1     3     96.7     6.0    999.0   0.00  
 233    7:40  198.0    64   88.4     5    102.9     6.6    999.0   0.00  
 233    7:50  359.0    66   84.1     3     98.0     5.4    999.0   0.00  
 233    8:00  517.0    71   74.9     2     94.9     7.2    999.0   0.00  
 233    8:10  515.0    71   73.0     5     92.2     7.8    999.0   0.00  
 233    8:20  301.0    69   76.1     5     71.5     7.2    999.0   0.00  
 233    8:30  314.0    70   74.3     5     94.3     7.8    999.0   0.00  
 233    8:40  399.0    69   75.8     5     89.0     9.6    999.0   0.00  
 233    8:50  453.0    71   73.4     5     89.2    10.8    999.0   0.00  
 233    9:00  538.0    71   72.5     7     94.6    11.3    999.0   0.00  
 233    9:10  556.0    73   69.2     6     89.1    11.3    999.0   0.00  
 233    9:20  570.0    72   70.9     6     87.5    10.8    999.0   0.00  
 233    9:30  589.0    73   69.0     6     89.7    10.2    999.0   0.00  
 233    9:40  606.0    73   68.9     7     98.9    10.8    999.0   0.00  
 233    9:50  619.0    73   69.3     6     97.7     9.6    999.0   0.00  
 233   10:00  635.0    72   70.8     7     92.3    11.9    999.0   0.00  
 233   10:10  655.0    72   70.3     7     78.1    10.2    999.0   0.00  
 233   10:20  676.0    72   71.3     8     84.0    13.1    999.0   0.00  
 233   10:30  709.0    72   70.6     7     77.9    10.8    999.0   0.00  
 233   10:40  715.0    72   71.2     7     68.9    12.5    999.0   0.00  
 233   10:50  605.0    70   74.1     6     53.4    10.8    999.0   0.00  
 233   11:00  644.0    71   72.9     6     90.9    10.2    999.0   0.00  
 233   11:10  710.0    72   72.5     7     88.4    10.8    999.0   0.00  
 233   11:20  715.0    71   73.4     6     90.7    11.3    999.0   0.00  
 233   11:30  720.0    72   71.5     7     98.1    11.3    999.0   0.00  
 233   11:40  724.0    73   70.1     6     99.4    10.2    999.0   0.00  
 233   11:50  726.0    72   70.4     8     96.0    11.3    999.0   0.00  
 233   12:00  726.0    73   69.4     8     98.8    11.3    999.0   0.00  
 233   12:10  726.0    73   69.7     6     91.1     9.0    999.0   0.00  
 233   12:20  724.0    73   69.1     6     95.2    10.2    999.0   0.00  
 233   12:30  721.0    73   69.6     7     95.9    11.3    999.0   0.00  
 233   12:40  716.0    73   68.9     6    100.4     9.6    999.0   0.00  
 233   12:50  710.0    72   70.4     7     95.5    10.8    999.0   0.00  
 233   13:00  703.0    73   69.2     7    101.6    10.8    999.0   0.00  
 233   13:10  694.0    73   69.7     7     96.6    10.8    999.0   0.00  
 233   13:20  685.0    73   69.9     5    100.4     7.8    999.0   0.00  
 233   13:30  674.0    73   69.4     6     97.5     9.6    999.0   0.00  
 233   13:40  661.0    73   68.7     6     98.2     8.4    999.0   0.00  
 233   13:50  648.0    74   68.7     7    102.1    10.2    999.0   0.00  
 233   14:00  633.0    74   68.5     7    102.3     9.6    999.0   0.00  
 233   14:10  616.0    73   69.7     8     99.6    10.8    999.0   0.00  
 233   14:20  599.0    73   69.3     7    103.6    10.2    999.0   0.00  
 233   14:30  582.0    74   67.5     6    106.7     9.0    999.0   0.00  
 233   14:40  563.0    75   66.3     5    102.6     8.4    999.0   0.00  
 233   14:50  542.0    73   68.8     6     99.4     9.6    999.0   0.00  
 233   15:00  520.0    72   71.2     7    103.5    10.2    999.0   0.00  
 233   15:10  498.0    72   70.6     7    108.9     9.6    999.0   0.00  
 233   15:20  475.0    72   71.2     6    106.8     8.4    999.0   0.00  
 233   15:30  452.0    72   71.1     5    116.6     7.8    999.0   0.00  
 233   15:40  427.0    73   69.9     5    108.1     7.2    999.0   0.00  
 233   15:50  403.0    72   70.4     4    163.4     7.8    999.0   0.00  
 233   16:00  379.0    74   67.4     3     63.9     6.0    999.0   0.00  
 233   16:10  352.0    72   70.8     3     92.2     5.4    999.0   0.00  
 233   16:20  326.0    73   69.5     4    264.1     9.6    999.0   0.00  
 233   16:30  299.0    72   69.4     5    264.4     8.4    999.0   0.00  
 233   16:40  272.0    73   68.9     5    248.0     9.0    999.0   0.00  
 233   16:50  244.0    71   71.6     6    260.9     9.0    999.0   0.00  
 233   17:00  217.0    70   73.1     8    261.9     9.6    999.0   0.00  
 233   17:10  189.0    70   75.1     7    260.8    10.2    999.0   0.00  
 233   17:20  163.0    70   75.3     7    258.3     9.6    999.0   0.00  
 233   17:30  137.0    68   77.3     9    259.9    11.9    999.0   0.00  
 233   17:40  113.0    68   79.0     9    264.0    11.9    999.0   0.00  
 233   17:50   89.0    67   80.5    10    265.2    13.1    999.0   0.00  
 233   18:00   62.0    66   83.3     9    263.4    13.1    999.0   0.00  
 233   18:10   37.0    65   84.3     7    260.5    10.2    999.0   0.00  
 233   18:20   20.0    65   85.6     4    118.9     7.2    999.0   0.00  
 233   18:30    8.0    64   89.2     4    172.3     6.6    999.0   0.00  
 233   18:40    4.0    63   88.7     3    255.7     6.6    999.0   0.00  
 233   18:50    0.0    63   89.7     7    248.4    10.8    999.0   0.00  
 233   19:00    0.0    63   89.4     4    242.1     6.0    999.0   0.00  
 233   19:10    0.0    63   89.3     3    205.4     5.4    999.0   0.00  
 233   19:20    0.0    65   86.4     2    122.9     3.0    999.0   0.00  
 233   19:30    0.0    66   83.3     3    140.1     5.4    999.0   0.00  
 233   19:40    0.0    65   85.9     3    121.9     5.4    999.0   0.00  
 233   19:50    0.0    66   84.7     4    116.9     6.0    999.0   0.00  
 233   20:00    0.0    66   85.2     5    118.3     6.0    999.0   0.00  
 233   20:10    0.0    66   84.3     6    107.1     8.4    999.0   0.00  
 233   20:20    0.0    65   84.8     4    111.7     7.2    999.0   0.00  
 233   20:30    0.0    66   83.1     5    106.6     8.4    999.0   0.00  
 233   20:40    0.0    65   85.3     4     81.9     6.6    999.0   0.00  
 233   20:50    1.0    64   91.8     4     54.0     6.0    999.0   0.00  
 233   21:00    2.0    63   93.2     3     72.8     4.2    999.0   0.00  
 233   21:10    0.0    65   83.5     4    100.7     4.8    999.0   0.00  
 233   21:20    0.0    65   81.5     5    105.4     7.2    999.0   0.00  
 233   21:30    0.0    65   83.8     5    111.7     6.6    999.0   0.00  
 233   21:40    0.0    64   88.7     7     97.9     8.4    999.0   0.00  
 233   21:50    1.0    63   94.0     7    110.5     9.0    999.0   0.00  
 233   22:00    2.0    63   94.8     8    113.7    10.2    999.0   0.00  
 233   22:10    2.0    63   95.1     7    113.6     9.6    999.0   0.00  
 233   22:20    3.0    63   95.4     6    114.8     9.0    999.0   0.00  
 233   22:30    3.0    63   95.6     4    114.5     6.0    999.0   0.00  
 233   22:40    3.0    63   95.6     3    115.8     5.4    999.0   0.00  
 233   22:50    3.0    62   95.8     3    105.5     4.8    999.0   0.00  
 233   23:00    3.0    62   95.8     3     96.5     4.8    999.0   0.00  
 233   23:10    0.0    63   91.9     5     65.4     7.2    999.0   0.00  
 233   23:20    0.0    65   86.8     5     62.2     6.0    999.0   0.00  
 233   23:30    0.0    65   85.2     5     66.3     6.6    999.0   0.00  
 233   23:40    0.0    65   85.0     6     73.2     6.6    999.0   0.00  
 233   23:50    0.0    65   86.0     4    100.0     5.4    999.0   0.00  
 234    0:00    0.0    64   86.8     3    114.7     4.2    999.0   0.00  
 234    0:10    0.0    64   87.1     3    122.0     4.8    999.0   0.00  
 234    0:20    0.0    64   87.7     3    129.4     4.8    999.0   0.00  
 234    0:30    0.0    64   88.1     3    128.2     4.8    999.0   0.00  
 234    0:40    0.0    64   88.0     4    116.4     4.8    999.0   0.00  
 234    0:50    0.0    64   88.2     4    111.0     6.0    999.0   0.00  
 234    1:00    0.0    63   88.8     5    115.7     6.0    999.0   0.00  
 234    1:10    0.0    63   89.8     6    103.6     6.6    999.0   0.00  
 234    1:20    0.0    63   89.1     4     95.8     6.6    999.0   0.00  
 234    1:30    0.0    64   87.7     5     98.7     6.6    999.0   0.00  
 234    1:40    0.0    64   86.8     5     96.9     6.6    999.0   0.00  
 234    1:50    0.0    64   86.2     4     95.8     5.4    999.0   0.00  
 234    2:00    0.0    63   89.7     4    104.9     5.4    999.0   0.00  
 234    2:10    2.0    62   93.5     3    128.1     3.6    999.0   0.00  
 234    2:20    2.0    62   93.9     4    105.7     5.4    999.0   0.00  
 234    2:30    3.0    62   95.3     5    109.2     7.2    999.0   0.00  
 234    2:40    3.0    62   95.7     5     99.7     7.2    999.0   0.00  
 234    2:50    3.0    62   96.0     6    101.8     9.0    999.0   0.00  
 234    3:00    3.0    62   96.1     7     98.7     9.0    999.0   0.00  
 234    3:10    3.0    62   96.3     7     94.1    10.2    999.0   0.00  
 234    3:20    3.0    62   96.4     6     92.2     7.8    999.0   0.00  
 234    3:30    3.0    62   96.4     5     89.8     7.2    999.0   0.00  
 234    3:40    3.0    62   96.5     4     91.7     6.0    999.0   0.00  
 234    3:50    3.0    62   96.6     5     92.5     8.4    999.0   0.00  
 234    4:00    3.0    62   96.6     6     96.7     7.8    999.0   0.00  
 234    4:10    3.0    62   96.7     5    108.8     7.2    999.0   0.00  

Return to Dakin Peak graphs page.


Western Regional Climate Center,wrcc@dri.edu